Time;durP1;ratioP1;P1;durP2;ratioP2;P2;SDS_P1;SDS_P2;PMS_P1;PMS_P2;Temp;Humidity;BMP_temperature;BMP_pressure;BME280_temperature;BME280_humidity;BME280_pressure;Samples;Min_cycle;Max_cycle;Signal;HPM_P1;HPM_P2
2022/04/07 00:01:21;;;;;;;16.75;3.20;;;;;;;;;;5069385;28;20143;-74
2022/04/07 00:03:47;;;;;;;14.57;3.97;;;;;;;;;;5069275;28;20106;-77
2022/04/07 00:06:13;;;;;;;13.25;3.10;;;;;;;;;;5064980;28;20045;-77
2022/04/07 00:08:40;;;;;;;13.60;3.17;;;;;;;;;;5069829;28;20044;-77
2022/04/07 00:11:06;;;;;;;15.38;4.07;;;;;;;;;;5051732;28;20046;-76
2022/04/07 00:13:32;;;;;;;13.45;3.45;;;;;;;;;;5069035;28;20044;-77
2022/04/07 00:16:00;;;;;;;12.98;3.90;;;;;;;;;;5069256;28;20044;-77
2022/04/07 00:18:26;;;;;;;12.80;4.13;;;;;;;;;;5068958;28;20040;-78
2022/04/07 00:20:52;;;;;;;13.10;4.18;;;;;;;;;;5068590;28;20436;-77
2022/04/07 00:23:19;;;;;;;12.02;4.20;;;;;;;;;;5035671;28;20459;-77
2022/04/07 00:25:45;;;;;;;14.15;4.22;;;;;;;;;;5052218;28;20041;-76
2022/04/07 00:28:11;;;;;;;9.77;3.50;;;;;;;;;;5069961;28;20042;-76
2022/04/07 00:30:39;;;;;;;10.43;3.28;;;;;;;;;;5069153;28;20040;-78
2022/04/07 00:33:07;;;;;;;11.93;3.03;;;;;;;;;;5068481;28;20097;-76
2022/04/07 00:35:33;;;;;;;6.90;2.60;;;;;;;;;;5068844;28;20049;-78
2022/04/07 00:37:59;;;;;;;11.55;3.08;;;;;;;;;;5051712;28;20048;-78
2022/04/07 00:40:26;;;;;;;11.75;2.88;;;;;;;;;;5068720;28;20040;-80
2022/04/07 00:42:52;;;;;;;12.52;3.58;;;;;;;;;;5068716;28;20404;-77
2022/04/07 00:45:23;;;;;;;11.07;3.50;;;;;;;;;;5068406;28;20045;-77
2022/04/07 00:47:49;;;;;;;12.10;3.70;;;;;;;;;;5052066;28;20496;-76
2022/04/07 00:50:16;;;;;;;12.15;4.30;;;;;;;;;;5068410;28;20119;-80
2022/04/07 00:52:44;;;;;;;15.60;4.43;;;;;;;;;;5068749;28;20044;-80
2022/04/07 00:55:11;;;;;;;12.00;3.72;;;;;;;;;;5068352;28;20040;-80
2022/04/07 00:57:39;;;;;;;13.02;4.15;;;;;;;;;;5068425;28;20047;-79
2022/04/07 01:00:06;;;;;;;10.45;3.90;;;;;;;;;;5068593;28;20455;-77
2022/04/07 01:02:33;;;;;;;13.57;4.15;;;;;;;;;;5068630;28;20045;-79
2022/04/07 01:04:59;;;;;;;13.18;4.00;;;;;;;;;;5051801;28;20076;-78
2022/04/07 01:07:25;;;;;;;15.60;4.80;;;;;;;;;;5067814;28;20051;-77
2022/04/07 01:09:52;;;;;;;14.50;5.10;;;;;;;;;;5051682;28;20058;-77
2022/04/07 01:12:18;;;;;;;15.52;5.25;;;;;;;;;;5035274;28;20044;-77
2022/04/07 01:14:54;;;;;;;15.85;6.07;;;;;;;;;;5068536;28;20044;-77
2022/04/07 01:17:20;;;;;;;14.93;6.05;;;;;;;;;;5067824;28;20080;-78
2022/04/07 01:19:47;;;;;;;17.13;6.13;;;;;;;;;;5068075;28;20053;-78
2022/04/07 01:22:14;;;;;;;14.00;6.30;;;;;;;;;;5051365;28;20036;-79
2022/04/07 01:24:40;;;;;;;13.93;5.95;;;;;;;;;;5068210;28;20041;-78
2022/04/07 01:27:06;;;;;;;15.60;5.80;;;;;;;;;;5067480;28;20082;-78
2022/04/07 01:29:32;;;;;;;14.55;5.90;;;;;;;;;;5067841;28;20063;-77
2022/04/07 01:32:08;;;;;;;17.02;6.13;;;;;;;;;;5051349;28;20123;-79
2022/04/07 01:34:34;;;;;;;16.00;4.72;;;;;;;;;;5054265;28;20102;-78
2022/04/07 01:37:01;;;;;;;14.32;4.63;;;;;;;;;;5072615;28;20499;-77
2022/04/07 01:39:27;;;;;;;13.18;3.63;;;;;;;;;;5055556;28;20143;-77
2022/04/07 01:41:54;;;;;;;15.98;3.67;;;;;;;;;;5055612;28;20044;-75
2022/04/07 01:44:21;;;;;;;18.60;3.33;;;;;;;;;;5071698;28;20037;-78
2022/04/07 01:46:51;;;;;;;15.13;3.30;;;;;;;;;;5072138;28;20041;-76
2022/04/07 01:49:18;;;;;;;16.48;3.35;;;;;;;;;;5055173;28;20111;-77
2022/04/07 01:51:46;;;;;;;18.60;3.30;;;;;;;;;;5071895;28;20041;-77
2022/04/07 01:54:12;;;;;;;16.92;3.05;;;;;;;;;;5071679;28;20506;-77
2022/04/07 01:56:40;;;;;;;15.93;4.13;;;;;;;;;;5072041;28;20407;-74
2022/04/07 01:59:08;;;;;;;17.83;3.70;;;;;;;;;;5072935;28;20472;-77
2022/04/07 02:01:34;;;;;;;16.58;4.25;;;;;;;;;;5049848;28;20396;-77
2022/04/07 02:04:00;;;;;;;16.45;3.80;;;;;;;;;;5070351;28;20033;-77
2022/04/07 02:06:27;;;;;;;17.45;4.10;;;;;;;;;;5053186;28;20489;-76
2022/04/07 02:08:54;;;;;;;18.67;4.82;;;;;;;;;;5055163;28;20408;-78
2022/04/07 02:11:22;;;;;;;12.38;4.55;;;;;;;;;;5071666;28;20399;-76
2022/04/07 02:13:48;;;;;;;12.07;4.60;;;;;;;;;;5071430;28;20036;-76
2022/04/07 02:16:15;;;;;;;17.77;4.90;;;;;;;;;;5071186;28;20062;-75
2022/04/07 02:18:41;;;;;;;11.98;4.60;;;;;;;;;;5071129;28;20395;-75
2022/04/07 02:21:08;;;;;;;14.65;4.97;;;;;;;;;;5054293;28;20488;-77
2022/04/07 02:23:41;;;;;;;13.52;5.15;;;;;;;;;;5054310;28;20111;-79
2022/04/07 02:26:12;;;;;;;16.80;4.75;;;;;;;;;;5072225;28;20041;-80
2022/04/07 02:28:38;;;;;;;13.15;4.35;;;;;;;;;;5071080;28;20047;-79
2022/04/07 02:31:04;;;;;;;19.40;5.05;;;;;;;;;;5070967;28;20047;-80
2022/04/07 02:33:30;;;;;;;12.57;4.57;;;;;;;;;;5071182;28;20032;-77
2022/04/07 02:35:57;;;;;;;10.63;4.97;;;;;;;;;;5071255;28;20082;-80
2022/04/07 02:38:23;;;;;;;19.25;5.68;;;;;;;;;;5070949;28;20052;-79
2022/04/07 02:40:49;;;;;;;14.30;4.47;;;;;;;;;;5053328;28;20064;-80
2022/04/07 02:43:15;;;;;;;16.00;5.03;;;;;;;;;;5052682;28;20040;-79
2022/04/07 02:45:41;;;;;;;17.27;4.93;;;;;;;;;;5069842;28;20048;-80
2022/04/07 02:48:07;;;;;;;13.00;4.80;;;;;;;;;;5070018;28;20480;-79
2022/04/07 02:50:33;;;;;;;15.85;4.80;;;;;;;;;;5070229;28;20032;-79
2022/04/07 02:52:59;;;;;;;16.58;4.82;;;;;;;;;;5070005;28;20381;-80
2022/04/07 02:55:27;;;;;;;15.68;4.43;;;;;;;;;;5069249;28;20133;-80
2022/04/07 02:57:53;;;;;;;16.48;4.80;;;;;;;;;;5053470;28;20504;-81
2022/04/07 03:00:19;;;;;;;16.17;4.80;;;;;;;;;;5069428;28;20064;-80
2022/04/07 03:02:45;;;;;;;21.30;5.00;;;;;;;;;;5069698;28;20036;-79
2022/04/07 03:05:11;;;;;;;16.88;5.72;;;;;;;;;;5069190;28;20115;-77
2022/04/07 03:07:38;;;;;;;14.70;5.05;;;;;;;;;;5053104;28;20124;-80
2022/04/07 03:10:04;;;;;;;13.63;4.60;;;;;;;;;;5069484;28;20041;-77
2022/04/07 03:12:30;;;;;;;10.82;4.50;;;;;;;;;;5069416;28;20035;-77
2022/04/07 03:14:56;;;;;;;16.27;5.55;;;;;;;;;;5070492;28;20045;-78
2022/04/07 03:17:22;;;;;;;11.38;4.13;;;;;;;;;;5035851;28;20047;-78
2022/04/07 03:19:48;;;;;;;18.23;4.40;;;;;;;;;;5069317;28;20036;-77
2022/04/07 03:22:15;;;;;;;17.17;4.70;;;;;;;;;;5052474;28;20132;-77
2022/04/07 03:24:42;;;;;;;13.77;4.60;;;;;;;;;;5052942;28;20052;-78
2022/04/07 03:27:08;;;;;;;17.30;4.47;;;;;;;;;;5071516;28;20404;-78
2022/04/07 03:29:35;;;;;;;17.55;4.40;;;;;;;;;;5072696;28;20124;-80
2022/04/07 03:32:01;;;;;;;15.88;4.07;;;;;;;;;;5072267;28;20115;-80
2022/04/07 03:34:27;;;;;;;12.88;4.13;;;;;;;;;;5071675;28;20044;-80
2022/04/07 03:36:53;;;;;;;13.52;3.60;;;;;;;;;;5052978;28;20496;-77
2022/04/07 03:39:19;;;;;;;14.35;4.22;;;;;;;;;;5028505;28;1174431;-79
2022/04/07 03:41:45;;;;;;;14.43;4.25;;;;;;;;;;5053509;28;20052;-79
2022/04/07 03:44:11;;;;;;;25.85;6.43;;;;;;;;;;5069532;28;20090;-77
2022/04/07 03:46:38;;;;;;;22.98;4.20;;;;;;;;;;5070857;28;20049;-78
2022/04/07 03:49:04;;;;;;;20.25;4.43;;;;;;;;;;5069521;28;20098;-79
2022/04/07 03:51:30;;;;;;;16.20;4.63;;;;;;;;;;5053062;28;20036;-76
2022/04/07 03:53:56;;;;;;;22.05;4.50;;;;;;;;;;5069877;28;20197;-78
2022/04/07 03:56:22;;;;;;;20.05;4.78;;;;;;;;;;5069070;28;20407;-77
2022/04/07 03:58:48;;;;;;;19.80;4.97;;;;;;;;;;5069672;28;20048;-78
2022/04/07 04:01:15;;;;;;;23.15;5.32;;;;;;;;;;5064091;28;20040;-76
2022/04/07 04:03:41;;;;;;;24.20;5.47;;;;;;;;;;5068295;28;20048;-77
2022/04/07 04:06:07;;;;;;;21.42;6.85;;;;;;;;;;5067278;28;20047;-79
2022/04/07 04:08:33;;;;;;;20.88;5.47;;;;;;;;;;5069405;28;20032;-80
2022/04/07 04:10:59;;;;;;;29.98;6.93;;;;;;;;;;5069523;28;20032;-81
2022/04/07 04:13:28;;;;;;;24.67;5.60;;;;;;;;;;5069440;28;20407;-82
2022/04/07 04:15:55;;;;;;;25.90;5.28;;;;;;;;;;5052643;28;20438;-80
2022/04/07 04:18:21;;;;;;;25.05;5.57;;;;;;;;;;5052464;28;20044;-77
2022/04/07 04:20:47;;;;;;;24.63;5.97;;;;;;;;;;5052563;28;20476;-78
2022/04/07 04:23:14;;;;;;;25.02;5.18;;;;;;;;;;5052034;28;20047;-77
2022/04/07 04:25:40;;;;;;;28.75;5.30;;;;;;;;;;5068766;28;20037;-77
2022/04/07 04:28:06;;;;;;;20.42;4.60;;;;;;;;;;5068872;28;20519;-77
2022/04/07 04:30:32;;;;;;;33.88;5.47;;;;;;;;;;5069311;28;20063;-78
2022/04/07 04:32:58;;;;;;;29.50;5.50;;;;;;;;;;5069097;28;20041;-76
2022/04/07 04:35:24;;;;;;;27.10;5.88;;;;;;;;;;5068629;28;20046;-78
2022/04/07 04:37:50;;;;;;;25.60;5.80;;;;;;;;;;5069071;28;20388;-77
2022/04/07 04:40:18;;;;;;;27.58;5.45;;;;;;;;;;5068144;28;20048;-77
2022/04/07 04:42:44;;;;;;;27.42;6.35;;;;;;;;;;5050223;28;20073;-82
2022/04/07 04:45:10;;;;;;;26.77;6.07;;;;;;;;;;5068302;28;20048;-81
2022/04/07 04:47:36;;;;;;;16.20;4.05;;;;;;;;;;5069066;28;20511;-82
2022/04/07 04:50:06;;;;;;;9.07;2.90;;;;;;;;;;5068897;28;20166;-79
2022/04/07 04:52:32;;;;;;;9.60;2.10;;;;;;;;;;5052228;28;20040;-82
2022/04/07 04:54:58;;;;;;;14.13;2.50;;;;;;;;;;5068962;28;20124;-83
2022/04/07 04:57:25;;;;;;;17.73;3.28;;;;;;;;;;5068453;28;20045;-81
2022/04/07 04:59:51;;;;;;;20.40;5.47;;;;;;;;;;5068302;28;20040;-80
2022/04/07 05:02:17;;;;;;;20.98;5.65;;;;;;;;;;5051457;28;20040;-80
2022/04/07 05:04:43;;;;;;;24.48;5.63;;;;;;;;;;5068765;28;20867;-83
2022/04/07 05:07:09;;;;;;;18.00;5.18;;;;;;;;;;5068123;28;20041;-75
2022/04/07 05:09:35;;;;;;;22.00;5.63;;;;;;;;;;5051763;28;20044;-81
2022/04/07 05:12:01;;;;;;;23.23;5.03;;;;;;;;;;5068528;28;20043;-81
2022/04/07 05:14:27;;;;;;;22.70;5.90;;;;;;;;;;5068063;28;20036;-82
2022/04/07 05:16:54;;;;;;;18.92;4.82;;;;;;;;;;5068284;28;20041;-84
2022/04/07 05:19:20;;;;;;;21.15;4.80;;;;;;;;;;5068238;28;20044;-77
2022/04/07 05:21:49;;;;;;;4.93;1.30;;;;;;;;;;5068225;28;20166;-77
2022/04/07 05:24:17;;;;;;;7.63;1.10;;;;;;;;;;5070408;28;20040;-80
2022/04/07 05:26:44;;;;;;;7.28;1.50;;;;;;;;;;5069814;28;20116;-80
2022/04/07 05:29:10;;;;;;;4.90;1.20;;;;;;;;;;5069552;28;20043;-81
2022/04/07 05:31:36;;;;;;;4.18;1.27;;;;;;;;;;5069762;28;20090;-80
2022/04/07 05:34:02;;;;;;;9.82;1.13;;;;;;;;;;5068773;28;20039;-75
2022/04/07 05:36:28;;;;;;;6.95;1.25;;;;;;;;;;5051330;28;20494;-76
2022/04/07 05:38:54;;;;;;;6.45;1.20;;;;;;;;;;5051398;28;20048;-77
2022/04/07 05:41:20;;;;;;;10.63;1.50;;;;;;;;;;5068066;28;20107;-78
2022/04/07 05:43:46;;;;;;;12.73;1.42;;;;;;;;;;5067950;28;20044;-78
2022/04/07 05:46:12;;;;;;;9.48;1.80;;;;;;;;;;5068035;28;20040;-81
2022/04/07 05:48:38;;;;;;;6.88;1.33;;;;;;;;;;5068613;28;20424;-79
2022/04/07 05:51:05;;;;;;;6.85;1.20;;;;;;;;;;5068243;28;20039;-79
2022/04/07 05:53:31;;;;;;;6.53;1.23;;;;;;;;;;5068069;28;20524;-75
2022/04/07 05:55:58;;;;;;;8.10;1.38;;;;;;;;;;5051802;28;20376;-75
2022/04/07 05:58:24;;;;;;;8.65;1.60;;;;;;;;;;5051238;28;20403;-75
2022/04/07 06:00:51;;;;;;;5.78;1.30;;;;;;;;;;5051500;28;20447;-75
2022/04/07 06:03:17;;;;;;;6.70;1.35;;;;;;;;;;5067562;28;20087;-75
2022/04/07 06:05:43;;;;;;;6.53;1.27;;;;;;;;;;5051009;28;20496;-75
2022/04/07 06:08:09;;;;;;;9.85;0.95;;;;;;;;;;5050997;28;20028;-76
2022/04/07 06:10:36;;;;;;;7.32;0.93;;;;;;;;;;5051570;28;20032;-75
2022/04/07 06:13:02;;;;;;;7.13;1.20;;;;;;;;;;5068152;28;20040;-76
2022/04/07 06:15:29;;;;;;;7.78;1.05;;;;;;;;;;5034184;28;20032;-76
2022/04/07 06:17:55;;;;;;;6.63;1.00;;;;;;;;;;5067445;28;20119;-77
2022/04/07 06:20:22;;;;;;;5.38;0.90;;;;;;;;;;5053469;28;20052;-76
2022/04/07 06:22:48;;;;;;;5.50;0.88;;;;;;;;;;5072852;28;20523;-76
2022/04/07 06:25:14;;;;;;;7.88;0.90;;;;;;;;;;5054205;28;20052;-77
2022/04/07 06:27:42;;;;;;;6.75;1.13;;;;;;;;;;5071658;28;20067;-75
2022/04/07 06:30:18;;;;;;;4.18;0.50;;;;;;;;;;5071551;28;20044;-75
2022/04/07 06:32:45;;;;;;;4.05;0.70;;;;;;;;;;5071013;28;20075;-76
2022/04/07 06:35:12;;;;;;;4.10;1.17;;;;;;;;;;5070631;28;20046;-78
2022/04/07 06:37:52;;;;;;;2.85;0.60;;;;;;;;;;5071442;28;20568;-77
2022/04/07 06:40:20;;;;;;;2.60;0.68;;;;;;;;;;5054012;28;20054;-79
2022/04/07 06:42:46;;;;;;;6.18;0.77;;;;;;;;;;5071103;28;20048;-77
2022/04/07 06:45:12;;;;;;;4.43;1.55;;;;;;;;;;5070713;28;20052;-79
2022/04/07 06:47:38;;;;;;;2.92;0.90;;;;;;;;;;5071007;28;20078;-77
2022/04/07 06:50:05;;;;;;;6.38;0.90;;;;;;;;;;5070912;28;20040;-76
2022/04/07 06:52:32;;;;;;;5.05;0.80;;;;;;;;;;5071695;28;20032;-77
2022/04/07 06:54:58;;;;;;;4.70;0.70;;;;;;;;;;5054154;28;20087;-78
2022/04/07 06:57:24;;;;;;;3.17;0.90;;;;;;;;;;5053914;28;20067;-76
2022/04/07 06:59:50;;;;;;;2.28;0.65;;;;;;;;;;5054433;28;20373;-76
2022/04/07 07:02:16;;;;;;;7.80;0.90;;;;;;;;;;5054145;28;20488;-75
2022/04/07 07:04:42;;;;;;;3.83;1.20;;;;;;;;;;5070543;28;20036;-77
2022/04/07 07:07:10;;;;;;;6.10;1.35;;;;;;;;;;5070322;28;20115;-76
2022/04/07 07:09:37;;;;;;;6.60;0.90;;;;;;;;;;5067603;28;20045;-77
2022/04/07 07:12:03;;;;;;;4.38;0.70;;;;;;;;;;5070130;28;20166;-78
2022/04/07 07:14:29;;;;;;;6.75;1.10;;;;;;;;;;5070294;28;20029;-78
2022/04/07 07:16:55;;;;;;;4.43;0.75;;;;;;;;;;5070349;28;20131;-78
2022/04/07 07:19:26;;;;;;;5.25;0.70;;;;;;;;;;5069937;28;20043;-75
2022/04/07 07:21:56;;;;;;;4.28;1.00;;;;;;;;;;5070286;28;20125;-77
2022/04/07 07:24:22;;;;;;;5.32;1.00;;;;;;;;;;5070147;28;20097;-78
2022/04/07 07:26:48;;;;;;;6.93;0.82;;;;;;;;;;5070070;28;20519;-77
2022/04/07 07:29:14;;;;;;;5.78;1.02;;;;;;;;;;5070337;28;20032;-78
2022/04/07 07:31:40;;;;;;;5.82;1.08;;;;;;;;;;5069096;28;20044;-78
2022/04/07 07:34:06;;;;;;;4.22;1.08;;;;;;;;;;5070106;28;20041;-78
2022/04/07 07:36:32;;;;;;;5.63;1.10;;;;;;;;;;5053386;28;20066;-76
2022/04/07 07:38:58;;;;;;;3.40;0.88;;;;;;;;;;5069957;28;20063;-76
2022/04/07 07:41:25;;;;;;;3.85;0.98;;;;;;;;;;5069539;28;20040;-77
2022/04/07 07:43:51;;;;;;;6.10;0.80;;;;;;;;;;5070018;28;20127;-75
2022/04/07 07:46:17;;;;;;;5.90;1.35;;;;;;;;;;5069517;28;20527;-76
2022/04/07 07:48:43;;;;;;;5.90;0.90;;;;;;;;;;5053245;28;20073;-76
2022/04/07 07:51:10;;;;;;;5.10;0.77;;;;;;;;;;5070547;28;20068;-77
2022/04/07 07:53:36;;;;;;;4.22;0.70;;;;;;;;;;5053401;28;20119;-75
2022/04/07 07:56:02;;;;;;;4.38;0.70;;;;;;;;;;5069659;28;20036;-76
2022/04/07 07:58:28;;;;;;;3.42;0.82;;;;;;;;;;5068987;28;20072;-75
2022/04/07 08:00:56;;;;;;;3.45;0.90;;;;;;;;;;5052780;28;20125;-77
2022/04/07 08:03:22;;;;;;;5.07;1.02;;;;;;;;;;5069152;28;20479;-78
2022/04/07 08:05:48;;;;;;;6.20;1.45;;;;;;;;;;5069185;28;20041;-75
2022/04/07 08:08:14;;;;;;;5.28;0.93;;;;;;;;;;5069187;28;20066;-75
2022/04/07 08:10:40;;;;;;;3.60;0.60;;;;;;;;;;5069495;28;20041;-78
2022/04/07 08:13:06;;;;;;;6.57;0.68;;;;;;;;;;5070806;28;20074;-78
2022/04/07 08:15:34;;;;;;;4.18;0.75;;;;;;;;;;5069117;28;20043;-77
2022/04/07 08:18:00;;;;;;;4.38;0.82;;;;;;;;;;5052615;28;20047;-76
2022/04/07 08:20:26;;;;;;;2.15;0.60;;;;;;;;;;5068751;28;20037;-79
2022/04/07 08:22:52;;;;;;;1.92;0.52;;;;;;;;;;5051974;28;20045;-78
2022/04/07 08:25:19;;;;;;;4.20;0.70;;;;;;;;;;5035795;28;20125;-79
2022/04/07 08:27:45;;;;;;;4.07;1.00;;;;;;;;;;5069110;28;20502;-77
2022/04/07 08:30:11;;;;;;;4.28;0.80;;;;;;;;;;5052255;28;20036;-78
2022/04/07 08:32:37;;;;;;;3.55;0.80;;;;;;;;;;5052299;28;20059;-77
2022/04/07 08:35:04;;;;;;;4.63;0.93;;;;;;;;;;5068847;28;20101;-77
2022/04/07 08:37:30;;;;;;;6.03;0.90;;;;;;;;;;5068545;28;20051;-79
2022/04/07 08:39:56;;;;;;;2.78;0.80;;;;;;;;;;5066734;28;20044;-77
2022/04/07 08:42:23;;;;;;;4.47;0.90;;;;;;;;;;5068396;28;20050;-78
2022/04/07 08:44:50;;;;;;;3.80;0.90;;;;;;;;;;5069123;28;20040;-78
2022/04/07 08:47:20;;;;;;;4.00;0.85;;;;;;;;;;5068337;28;20086;-79
2022/04/07 08:49:48;;;;;;;3.88;0.90;;;;;;;;;;5068469;28;20041;-78
2022/04/07 08:52:15;;;;;;;5.72;0.95;;;;;;;;;;5068634;28;20038;-79
2022/04/07 08:54:42;;;;;;;5.60;1.27;;;;;;;;;;5052171;28;20094;-77
2022/04/07 08:57:09;;;;;;;6.60;1.02;;;;;;;;;;5069050;28;20535;-78
2022/04/07 08:59:35;;;;;;;4.13;1.10;;;;;;;;;;5051821;28;20098;-78
2022/04/07 09:02:02;;;;;;;5.80;0.93;;;;;;;;;;5068960;28;20036;-78
2022/04/07 09:04:30;;;;;;;5.90;1.13;;;;;;;;;;5068457;28;20043;-77
2022/04/07 09:06:57;;;;;;;5.10;1.20;;;;;;;;;;5068205;28;20040;-77
2022/04/07 09:09:23;;;;;;;4.57;1.05;;;;;;;;;;5067960;28;20033;-79
2022/04/07 09:11:55;;;;;;;6.20;1.30;;;;;;;;;;5068360;28;20089;-77
2022/04/07 09:14:22;;;;;;;6.93;1.20;;;;;;;;;;5069786;28;20522;-78
2022/04/07 09:16:53;;;;;;;7.93;1.52;;;;;;;;;;5069879;28;20399;-77
2022/04/07 09:19:20;;;;;;;10.45;1.45;;;;;;;;;;5068221;28;20040;-77
2022/04/07 09:21:46;;;;;;;6.47;1.38;;;;;;;;;;5068303;28;20388;-77
2022/04/07 09:24:13;;;;;;;7.97;1.30;;;;;;;;;;5069095;28;20050;-76
2022/04/07 09:26:39;;;;;;;6.50;1.42;;;;;;;;;;5052074;28;20052;-80
2022/04/07 09:29:14;;;;;;;8.73;1.55;;;;;;;;;;5068273;28;20086;-77
2022/04/07 09:31:41;;;;;;;7.97;1.45;;;;;;;;;;5068320;28;20037;-77
2022/04/07 09:34:07;;;;;;;8.27;1.38;;;;;;;;;;5068615;28;20040;-76
2022/04/07 09:36:34;;;;;;;10.50;1.88;;;;;;;;;;5035055;28;20082;-76
2022/04/07 09:39:01;;;;;;;9.20;1.63;;;;;;;;;;5068145;28;20555;-78
2022/04/07 09:41:31;;;;;;;8.55;1.42;;;;;;;;;;5067981;28;20052;-77
2022/04/07 09:44:01;;;;;;;10.43;1.73;;;;;;;;;;5067980;28;20078;-76
2022/04/07 09:46:34;;;;;;;10.00;1.88;;;;;;;;;;5067835;28;20095;-79
2022/04/07 09:49:11;;;;;;;13.18;1.70;;;;;;;;;;5065959;28;20078;-78
2022/04/07 09:51:47;;;;;;;11.63;1.85;;;;;;;;;;5068086;28;20071;-77
2022/04/07 09:54:14;;;;;;;9.63;1.92;;;;;;;;;;5067342;28;20041;-77
2022/04/07 09:56:40;;;;;;;10.52;1.83;;;;;;;;;;5072289;28;20052;-77
2022/04/07 09:59:07;;;;;;;13.00;2.00;;;;;;;;;;5055526;28;20520;-78
2022/04/07 10:01:40;;;;;;;8.05;1.50;;;;;;;;;;5072057;28;20040;-77
2022/04/07 10:04:06;;;;;;;10.85;1.65;;;;;;;;;;5071905;28;20047;-75
2022/04/07 10:06:33;;;;;;;13.70;2.08;;;;;;;;;;5054716;28;20041;-79
2022/04/07 10:09:04;;;;;;;9.90;2.17;;;;;;;;;;5072705;28;20075;-76
2022/04/07 10:11:33;;;;;;;11.77;2.40;;;;;;;;;;5071529;28;20119;-76
2022/04/07 10:14:00;;;;;;;10.55;1.63;;;;;;;;;;5070977;28;20036;-75
2022/04/07 10:16:29;;;;;;;10.10;2.25;;;;;;;;;;5072703;28;20510;-77
2022/04/07 10:19:05;;;;;;;13.93;1.90;;;;;;;;;;5071579;28;20494;-75
2022/04/07 10:21:33;;;;;;;12.27;1.85;;;;;;;;;;5072722;28;20078;-75
2022/04/07 10:24:15;;;;;;;12.70;2.10;;;;;;;;;;5054581;28;20063;-76
2022/04/07 10:26:43;;;;;;;10.70;2.08;;;;;;;;;;5073197;28;20472;-75
2022/04/07 10:29:18;;;;;;;10.07;2.28;;;;;;;;;;5071263;28;20080;-79
2022/04/07 10:32:04;;;;;;;16.08;2.15;;;;;;;;;;5071244;28;20048;-79
2022/04/07 10:34:32;;;;;;;14.55;2.00;;;;;;;;;;5070858;28;20085;-80
2022/04/07 10:37:07;;;;;;;12.13;2.08;;;;;;;;;;5071376;28;20044;-77
2022/04/07 10:39:33;;;;;;;13.40;2.25;;;;;;;;;;5054197;28;20061;-75
2022/04/07 10:41:59;;;;;;;12.32;2.00;;;;;;;;;;5071159;28;20106;-78
2022/04/07 10:44:26;;;;;;;17.23;2.25;;;;;;;;;;5070542;28;20120;-78
2022/04/07 10:47:02;;;;;;;10.05;2.25;;;;;;;;;;5070677;28;20047;-76
2022/04/07 10:49:29;;;;;;;12.55;2.10;;;;;;;;;;5071161;28;20033;-76
2022/04/07 10:51:57;;;;;;;12.25;2.13;;;;;;;;;;5054649;28;20488;-76
2022/04/07 10:54:24;;;;;;;14.07;1.98;;;;;;;;;;5070584;28;20044;-79
2022/04/07 10:56:51;;;;;;;13.38;2.15;;;;;;;;;;5054632;28;20376;-79
2022/04/07 10:59:19;;;;;;;10.15;1.88;;;;;;;;;;5070198;28;20085;-78
2022/04/07 11:01:46;;;;;;;18.60;3.65;;;;;;;;;;5053980;28;20506;-80
2022/04/07 11:04:19;;;;;;;15.52;3.53;;;;;;;;;;5070708;28;20488;-75
2022/04/07 11:07:03;;;;;;;14.57;2.97;;;;;;;;;;5070458;28;20048;-76
2022/04/07 11:09:48;;;;;;;22.38;3.38;;;;;;;;;;5069633;28;20041;-78
2022/04/07 11:12:17;;;;;;;12.90;2.72;;;;;;;;;;5070385;28;20049;-76
2022/04/07 11:14:48;;;;;;;16.48;2.80;;;;;;;;;;5070736;28;20543;-75
2022/04/07 11:17:34;;;;;;;17.73;2.63;;;;;;;;;;5071869;28;20119;-75
2022/04/07 11:20:03;;;;;;;16.35;4.07;;;;;;;;;;5068043;28;20108;-78
2022/04/07 11:22:45;;;;;;;12.45;2.30;;;;;;;;;;5053286;28;20083;-77
2022/04/07 11:25:12;;;;;;;13.50;2.47;;;;;;;;;;5070316;28;20037;-79
2022/04/07 11:27:42;;;;;;;12.70;2.05;;;;;;;;;;5070549;28;20123;-78
2022/04/07 11:30:09;;;;;;;16.75;2.10;;;;;;;;;;5070028;28;20101;-75
2022/04/07 11:32:36;;;;;;;12.40;1.88;;;;;;;;;;5070590;28;20396;-75
2022/04/07 11:35:13;;;;;;;12.23;2.72;;;;;;;;;;5053171;28;20029;-77
2022/04/07 11:37:40;;;;;;;14.13;1.88;;;;;;;;;;5070116;28;20127;-76
2022/04/07 11:40:07;;;;;;;14.02;2.00;;;;;;;;;;5069110;28;20074;-75
2022/04/07 11:42:33;;;;;;;13.27;2.22;;;;;;;;;;5069507;28;20052;-78
2022/04/07 11:45:00;;;;;;;12.30;1.80;;;;;;;;;;5069825;28;20033;-77
2022/04/07 11:47:31;;;;;;;12.98;2.08;;;;;;;;;;5070939;28;20068;-75
2022/04/07 11:49:57;;;;;;;13.60;2.28;;;;;;;;;;5070073;28;20480;-76
2022/04/07 11:52:24;;;;;;;8.90;2.20;;;;;;;;;;5069325;28;20045;-76
2022/04/07 11:54:54;;;;;;;15.25;2.45;;;;;;;;;;5070321;28;20068;-77
2022/04/07 11:57:22;;;;;;;14.85;2.60;;;;;;;;;;5069342;28;20036;-78
2022/04/07 11:59:48;;;;;;;12.65;2.33;;;;;;;;;;5069419;28;20036;-77
2022/04/07 12:02:20;;;;;;;12.25;2.47;;;;;;;;;;5053184;28;20504;-78
2022/04/07 12:04:46;;;;;;;13.02;2.38;;;;;;;;;;5069560;28;20036;-80
2022/04/07 12:07:12;;;;;;;15.05;2.58;;;;;;;;;;5069465;28;20103;-76
2022/04/07 12:09:38;;;;;;;15.30;2.15;;;;;;;;;;5068933;28;20090;-76
2022/04/07 12:12:05;;;;;;;9.32;1.80;;;;;;;;;;5068782;28;20047;-76
2022/04/07 12:14:31;;;;;;;10.13;2.17;;;;;;;;;;5069876;28;20105;-75
2022/04/07 12:16:57;;;;;;;11.93;1.95;;;;;;;;;;5052211;28;20036;-76
2022/04/07 12:19:23;;;;;;;12.73;2.00;;;;;;;;;;5069012;28;20048;-80
2022/04/07 12:21:53;;;;;;;12.80;2.10;;;;;;;;;;5069268;28;20090;-77
2022/04/07 12:24:20;;;;;;;9.13;1.83;;;;;;;;;;5068536;28;20048;-76
2022/04/07 12:26:47;;;;;;;11.77;1.77;;;;;;;;;;5068796;28;20136;-77
2022/04/07 12:29:24;;;;;;;10.27;2.08;;;;;;;;;;5052309;28;20090;-77
2022/04/07 12:32:00;;;;;;;7.93;1.67;;;;;;;;;;5068931;28;20047;-76
2022/04/07 12:34:26;;;;;;;12.90;2.00;;;;;;;;;;5052116;28;20048;-76
2022/04/07 12:36:52;;;;;;;10.82;1.98;;;;;;;;;;5035820;28;20114;-77
2022/04/07 12:39:20;;;;;;;9.43;1.38;;;;;;;;;;5068336;28;20063;-78
2022/04/07 12:41:49;;;;;;;8.32;1.30;;;;;;;;;;5068752;28;20078;-77
2022/04/07 12:44:36;;;;;;;8.85;1.40;;;;;;;;;;5069119;28;20040;-76
2022/04/07 12:47:10;;;;;;;10.43;1.40;;;;;;;;;;5066871;28;20037;-77
2022/04/07 12:49:39;;;;;;;4.30;0.90;;;;;;;;;;5068438;28;20380;-77
2022/04/07 12:52:11;;;;;;;3.63;0.77;;;;;;;;;;5068707;28;20043;-78
2022/04/07 12:54:58;;;;;;;2.95;0.95;;;;;;;;;;5051940;28;20048;-77
2022/04/07 12:57:31;;;;;;;5.35;0.90;;;;;;;;;;5049686;28;20588;-78
2022/04/07 12:59:58;;;;;;;6.72;1.30;;;;;;;;;;5068764;28;20044;-78
2022/04/07 13:02:25;;;;;;;9.55;1.60;;;;;;;;;;5069603;28;20051;-79
2022/04/07 13:04:52;;;;;;;8.32;1.45;;;;;;;;;;5051866;28;20487;-77
2022/04/07 13:07:19;;;;;;;8.93;1.80;;;;;;;;;;5068186;28;20111;-79
2022/04/07 13:09:47;;;;;;;10.98;2.05;;;;;;;;;;5068401;28;20119;-78
2022/04/07 13:12:16;;;;;;;9.75;1.65;;;;;;;;;;5068111;28;20038;-78
2022/04/07 13:14:43;;;;;;;11.60;2.13;;;;;;;;;;5066172;28;20045;-77
2022/04/07 13:17:09;;;;;;;12.15;1.80;;;;;;;;;;5035225;28;20036;-78
2022/04/07 13:19:36;;;;;;;10.82;2.38;;;;;;;;;;5069389;28;20090;-78
2022/04/07 13:22:02;;;;;;;7.75;1.50;;;;;;;;;;5069610;28;20037;-79
2022/04/07 13:24:28;;;;;;;9.27;1.80;;;;;;;;;;5067956;28;20036;-75
2022/04/07 13:26:55;;;;;;;8.82;1.58;;;;;;;;;;5068196;28;20088;-78
2022/04/07 13:29:21;;;;;;;7.43;1.67;;;;;;;;;;5055073;28;20364;-80
2022/04/07 13:31:47;;;;;;;5.57;1.35;;;;;;;;;;5054932;28;20040;-76
2022/04/07 13:34:14;;;;;;;9.80;1.40;;;;;;;;;;5072345;28;20052;-76
2022/04/07 13:36:40;;;;;;;11.32;1.75;;;;;;;;;;5072421;28;20063;-79
2022/04/07 13:39:06;;;;;;;13.45;2.30;;;;;;;;;;5072481;28;20510;-76
2022/04/07 13:41:33;;;;;;;12.98;2.38;;;;;;;;;;5055309;28;20131;-77
2022/04/07 13:43:59;;;;;;;11.00;1.73;;;;;;;;;;5072063;28;20060;-81
2022/04/07 13:46:25;;;;;;;6.65;1.20;;;;;;;;;;5071784;28;20040;-77
2022/04/07 13:48:51;;;;;;;6.75;1.80;;;;;;;;;;5073452;28;20059;-77
2022/04/07 13:51:18;;;;;;;10.00;1.67;;;;;;;;;;5071616;28;20490;-76
2022/04/07 13:53:44;;;;;;;8.60;1.60;;;;;;;;;;5072339;28;20450;-78
2022/04/07 13:56:10;;;;;;;10.15;1.90;;;;;;;;;;5072053;28;20070;-77
2022/04/07 13:58:36;;;;;;;9.95;1.83;;;;;;;;;;5071813;28;20551;-77
2022/04/07 14:01:04;;;;;;;11.95;2.55;;;;;;;;;;5071781;28;20040;-78
2022/04/07 14:03:30;;;;;;;9.38;2.00;;;;;;;;;;5071702;28;20047;-76
2022/04/07 14:05:58;;;;;;;10.07;2.17;;;;;;;;;;5072957;28;20132;-78
2022/04/07 14:08:29;;;;;;;10.10;1.80;;;;;;;;;;5071399;28;20519;-76
2022/04/07 14:10:55;;;;;;;5.75;1.75;;;;;;;;;;5071209;28;20040;-76
2022/04/07 14:13:23;;;;;;;10.70;1.70;;;;;;;;;;5070950;28;20028;-77
2022/04/07 14:15:50;;;;;;;8.30;1.65;;;;;;;;;;5055126;28;20044;-76
2022/04/07 14:18:16;;;;;;;8.20;1.50;;;;;;;;;;5071048;28;20106;-75
2022/04/07 14:20:43;;;;;;;8.98;1.70;;;;;;;;;;5071769;28;20174;-80
2022/04/07 14:23:12;;;;;;;8.60;1.80;;;;;;;;;;5055240;28;20687;-74
2022/04/07 14:25:39;;;;;;;7.32;1.63;;;;;;;;;;5071150;28;20072;-77
2022/04/07 14:28:06;;;;;;;7.93;1.70;;;;;;;;;;5054937;28;20457;-76
2022/04/07 14:30:32;;;;;;;10.23;1.92;;;;;;;;;;5071050;28;20069;-78
2022/04/07 14:32:58;;;;;;;11.52;1.75;;;;;;;;;;5072613;28;20033;-78
2022/04/07 14:35:24;;;;;;;7.93;1.10;;;;;;;;;;5054761;28;20143;-78
2022/04/07 14:37:52;;;;;;;9.75;1.30;;;;;;;;;;5070960;28;20040;-80